createdAt,value
2019-01-23T00:02:13.789Z,-3.10
2019-01-23T00:04:54.748Z,-3.00
2019-01-23T00:07:39.055Z,-2.90
2019-01-23T00:10:20.395Z,-3.00
2019-01-23T00:12:49.416Z,-3.10
2019-01-23T00:15:37.615Z,-3.10
2019-01-23T00:18:21.922Z,-3.10
2019-01-23T00:21:02.824Z,-3.10
2019-01-23T00:23:31.786Z,-3.10
2019-01-23T00:26:19.895Z,-3.10
2019-01-23T00:29:00.674Z,-3.20
2019-01-23T00:31:41.573Z,-3.20
2019-01-23T00:37:21.536Z,-3.10
2019-01-23T00:40:02.505Z,-3.20
2019-01-23T00:42:43.071Z,-3.10
2019-01-23T00:45:23.997Z,-3.20
2019-01-23T00:48:04.510Z,-3.10
2019-01-23T00:50:45.871Z,-3.20
2019-01-23T00:53:27.272Z,-3.10
2019-01-23T00:55:56.359Z,-3.20
2019-01-23T00:58:49.180Z,-3.30
2019-01-23T01:04:03.675Z,-3.20
2019-01-23T01:06:44.518Z,-3.30
2019-01-23T01:09:25.360Z,-3.20
2019-01-23T01:15:15.507Z,-3.30
2019-01-23T01:17:56.450Z,-3.30
2019-01-23T01:20:37.140Z,-3.20
2019-01-23T01:23:20.963Z,-3.30
2019-01-23T01:26:01.500Z,-3.30
2019-01-23T01:28:42.347Z,-3.30
2019-01-23T01:31:23.047Z,-3.30
2019-01-23T01:33:52.093Z,-3.30
2019-01-23T01:43:24.043Z,-3.40
2019-01-23T01:46:05.512Z,-3.40
2019-01-23T01:48:34.519Z,-3.30
2019-01-23T01:51:22.924Z,-3.40
2019-01-23T01:54:03.503Z,-3.40
2019-01-23T01:56:44.135Z,-3.50
2019-01-23T01:59:24.647Z,-3.40
2019-01-23T02:02:05.975Z,-3.40
2019-01-23T02:04:46.875Z,-3.40
2019-01-23T02:07:15.896Z,-3.40
2019-01-23T02:10:04.913Z,-3.40
2019-01-23T02:12:53.171Z,-3.50
2019-01-23T02:15:34.500Z,-3.40
2019-01-23T02:18:15.051Z,-3.40
2019-01-23T02:20:56.285Z,-3.50
2019-01-23T02:23:37.728Z,-3.40
2019-01-23T02:26:19.013Z,-3.40
2019-01-23T02:29:09.322Z,-3.40
2019-01-23T02:31:46.139Z,-3.20
2019-01-23T02:34:15.114Z,-3.40
2019-01-23T02:37:03.263Z,-3.40
2019-01-23T02:39:51.432Z,-3.40
2019-01-23T02:42:20.439Z,-3.20
2019-01-23T02:45:08.637Z,-3.40
2019-01-23T02:47:49.457Z,-3.40
2019-01-23T02:50:30.422Z,-3.40
2019-01-23T02:53:11.268Z,-3.60
2019-01-23T02:55:52.174Z,-3.40
2019-01-23T02:58:34.041Z,-3.30
2019-01-23T03:01:15.199Z,-3.40
2019-01-23T03:03:55.972Z,-3.40
2019-01-23T03:06:36.661Z,-3.40
2019-01-23T03:09:17.665Z,-3.30
2019-01-23T03:11:58.443Z,-3.30
2019-01-23T03:14:39.688Z,-3.30
2019-01-23T03:17:20.565Z,-3.40
2019-01-23T03:20:01.699Z,-3.50
2019-01-23T03:25:24.692Z,-3.40
2019-01-23T03:28:06.095Z,-3.30
2019-01-23T03:30:46.699Z,-3.30
2019-01-23T03:33:27.405Z,-3.40
2019-01-23T03:35:56.478Z,-3.40
2019-01-23T03:38:44.698Z,-3.30
2019-01-23T03:41:25.862Z,-3.30
2019-01-23T03:44:07.196Z,-3.40
2019-01-23T03:46:48.379Z,-3.60
2019-01-23T03:49:28.933Z,-3.50
2019-01-23T03:52:09.651Z,-3.50
2019-01-23T03:54:38.642Z,-3.50
2019-01-23T03:57:29.854Z,-3.40
2019-01-23T04:00:19.367Z,-3.40
2019-01-23T04:03:00.225Z,-3.40
2019-01-23T04:05:41.530Z,-3.40
2019-01-23T04:14:09.659Z,-3.40
2019-01-23T04:16:50.391Z,-3.50
2019-01-23T04:19:31.300Z,-3.40
2019-01-23T04:22:12.674Z,-3.50
2019-01-23T04:24:53.111Z,-3.40
2019-01-23T04:27:34.211Z,-3.50
2019-01-23T04:30:15.049Z,-3.50
2019-01-23T04:32:56.047Z,-3.50
2019-01-23T04:35:36.752Z,-3.50
2019-01-23T04:38:17.997Z,-3.50
2019-01-23T04:40:59.158Z,-3.50
2019-01-23T04:43:40.223Z,-3.60
2019-01-23T04:46:21.548Z,-3.60
2019-01-23T04:49:02.722Z,-3.60
2019-01-23T04:54:59.654Z,-3.50
2019-01-23T04:57:28.780Z,-3.50
2019-01-23T05:03:16.606Z,-3.60
2019-01-23T05:05:57.982Z,-3.50
2019-01-23T05:08:40.847Z,-3.60
2019-01-23T05:11:21.769Z,-3.70
2019-01-23T05:14:02.774Z,-3.70
2019-01-23T05:16:51.048Z,-6.30
2019-01-23T05:19:34.300Z,-3.60
2019-01-23T05:22:17.916Z,-3.70
2019-01-23T05:25:11.153Z,-3.70
2019-01-23T05:27:40.379Z,-3.70
2019-01-23T05:30:28.813Z,-3.60
2019-01-23T05:33:11.420Z,-3.70
2019-01-23T05:36:16.111Z,-3.90
2019-01-23T05:38:52.206Z,-3.70
2019-01-23T05:44:16.019Z,-3.80
2019-01-23T05:47:04.517Z,-3.90
2019-01-23T05:55:39.732Z,-3.80
2019-01-23T05:58:20.783Z,-3.90
2019-01-23T06:01:01.580Z,-4.00
2019-01-23T06:03:42.243Z,-3.90
2019-01-23T06:06:23.847Z,-4.00
2019-01-23T06:09:05.463Z,-4.00
2019-01-23T06:11:46.699Z,-3.90
2019-01-23T06:14:28.041Z,-3.80
2019-01-23T06:17:08.708Z,-3.90
2019-01-23T06:19:50.425Z,-3.90
2019-01-23T06:22:31.986Z,-3.90
2019-01-23T06:25:13.219Z,-4.00
2019-01-23T06:27:52.404Z,-3.90
2019-01-23T06:30:40.573Z,-3.90
2019-01-23T06:33:21.937Z,-3.90
2019-01-23T06:35:50.990Z,-3.80
2019-01-23T06:41:40.474Z,-4.00
2019-01-23T06:44:21.776Z,-3.90
2019-01-23T06:46:51.013Z,-3.80
2019-01-23T06:49:39.839Z,-3.80
2019-01-23T06:52:20.964Z,-4.00
2019-01-23T06:54:49.981Z,-3.90
2019-01-23T06:57:38.280Z,-3.90
2019-01-23T07:00:56.407Z,-4.00
2019-01-23T07:03:38.161Z,-4.00
2019-01-23T07:06:19.398Z,-4.00
2019-01-23T07:08:59.798Z,-4.10
2019-01-23T07:11:40.823Z,-3.90
2019-01-23T07:14:21.646Z,-3.80
2019-01-23T07:17:02.982Z,-3.90
2019-01-23T07:19:43.088Z,-3.80
2019-01-23T07:22:31.274Z,-3.90
2019-01-23T07:25:12.247Z,-3.90
2019-01-23T07:27:53.850Z,-3.90
2019-01-23T07:30:35.804Z,-3.80
2019-01-23T07:33:16.672Z,-3.90
2019-01-23T07:35:57.147Z,-3.80
2019-01-23T07:38:38.227Z,-3.90
2019-01-23T07:41:19.647Z,-4.00
2019-01-23T07:44:00.655Z,-3.90
2019-01-23T07:46:41.570Z,-3.80
2019-01-23T07:49:23.924Z,-3.90
2019-01-23T07:51:52.988Z,-3.90
2019-01-23T07:54:41.297Z,-3.90
2019-01-23T07:57:22.333Z,-3.80
2019-01-23T07:59:51.511Z,-3.80
2019-01-23T08:02:39.857Z,-3.90
2019-01-23T08:05:09.583Z,-3.80
2019-01-23T08:07:57.795Z,-3.80
2019-01-23T08:10:39.156Z,-3.80
2019-01-23T08:13:19.871Z,-3.90
2019-01-23T08:16:01.314Z,-3.70
2019-01-23T08:18:42.555Z,-3.70
2019-01-23T08:21:11.668Z,-3.70
2019-01-23T08:23:59.836Z,-3.60
2019-01-23T08:26:48.213Z,-3.50
2019-01-23T08:29:17.241Z,-3.60
2019-01-23T08:31:46.250Z,-3.70
2019-01-23T08:34:34.609Z,-3.60
2019-01-23T08:37:16.118Z,-3.50
2019-01-23T08:39:56.805Z,-3.40
2019-01-23T08:42:37.492Z,-3.40
2019-01-23T08:45:16.816Z,-3.40
2019-01-23T08:48:05.317Z,-3.40
2019-01-23T08:50:46.702Z,-3.40
2019-01-23T08:53:27.358Z,-3.40
2019-01-23T08:56:08.663Z,-3.50
2019-01-23T08:58:47.827Z,-3.40
2019-01-23T09:01:29.167Z,-3.40
2019-01-23T09:03:58.923Z,-3.30
2019-01-23T09:06:47.395Z,-3.70
2019-01-23T09:09:54.970Z,-3.60
2019-01-23T09:12:36.261Z,-3.50
2019-01-23T09:15:06.100Z,-3.40
2019-01-23T09:17:54.404Z,-3.10
2019-01-23T09:20:42.610Z,-3.10
2019-01-23T09:23:23.833Z,-3.10
2019-01-23T09:26:04.603Z,-3.10
2019-01-23T09:28:45.287Z,-3.00
2019-01-23T09:31:25.677Z,-3.10
2019-01-23T09:34:06.559Z,-3.10
2019-01-23T09:39:29.946Z,-3.00
2019-01-23T09:42:10.778Z,-3.10
2019-01-23T09:44:51.618Z,-3.20
2019-01-23T09:47:59.017Z,-3.00
2019-01-23T09:50:40.274Z,-3.20
2019-01-23T09:53:21.210Z,-3.30
2019-01-23T09:56:02.047Z,-3.30
2019-01-23T09:58:43.423Z,-3.30
2019-01-23T10:01:12.552Z,-3.10
2019-01-23T10:04:00.976Z,-3.10
2019-01-23T10:06:49.884Z,-3.10
2019-01-23T10:09:30.399Z,-3.30
2019-01-23T10:12:10.995Z,-3.40
2019-01-23T10:14:40.066Z,-3.50
2019-01-23T10:17:28.190Z,-3.40
2019-01-23T10:20:16.367Z,-3.30
2019-01-23T10:22:57.349Z,-3.20
2019-01-23T10:25:37.877Z,-3.10
2019-01-23T10:28:18.576Z,-3.10
2019-01-23T10:30:59.276Z,-3.10
2019-01-23T10:33:40.495Z,-2.90
2019-01-23T10:36:21.822Z,-3.00
2019-01-23T10:39:02.787Z,-2.90
2019-01-23T10:41:43.634Z,-2.90
2019-01-23T10:44:24.158Z,-2.90
2019-01-23T10:47:04.935Z,-2.70
2019-01-23T10:49:46.323Z,-2.70
2019-01-23T10:52:15.513Z,-2.60
2019-01-23T10:54:44.622Z,-2.50
2019-01-23T10:57:13.661Z,-2.50
2019-01-23T11:00:01.928Z,-2.60
2019-01-23T11:02:42.402Z,-2.50
2019-01-23T11:05:23.607Z,-2.40
2019-01-23T11:07:52.692Z,-2.40
2019-01-23T11:10:40.800Z,-2.40
2019-01-23T11:13:21.368Z,-2.40
2019-01-23T11:16:02.269Z,-2.20
2019-01-23T11:18:43.194Z,-2.30
2019-01-23T11:21:24.541Z,-2.20
2019-01-23T11:23:53.660Z,-2.20
2019-01-23T11:26:41.881Z,-2.20
2019-01-23T11:29:30.366Z,-2.20
2019-01-23T11:32:11.364Z,-2.00
2019-01-23T11:34:52.553Z,-2.10
2019-01-23T11:37:22.187Z,-2.00
2019-01-23T11:40:11.963Z,-2.00
2019-01-23T11:43:00.100Z,-2.00
2019-01-23T11:45:41.503Z,-2.10
2019-01-23T11:48:10.585Z,-2.00
2019-01-23T11:50:58.932Z,-1.90
2019-01-23T11:53:47.173Z,-2.00
2019-01-23T11:56:16.345Z,-1.80
2019-01-23T12:05:20.897Z,-1.60
2019-01-23T12:08:01.964Z,-1.30
2019-01-23T12:10:31.072Z,-1.00
2019-01-23T12:13:19.288Z,-0.80
2019-01-23T12:16:07.573Z,-1.00
2019-01-23T12:18:36.741Z,-1.20
2019-01-23T12:21:25.027Z,-1.30
2019-01-23T12:23:58.277Z,-1.40
2019-01-23T12:29:05.921Z,-1.80
2019-01-23T12:34:28.738Z,-2.10
2019-01-23T12:37:12.552Z,-2.40
2019-01-23T12:39:53.626Z,-2.60
2019-01-23T12:42:22.685Z,-2.50
2019-01-23T12:45:03.819Z,-2.40
2019-01-23T12:47:45.389Z,-2.50
2019-01-23T12:50:28.603Z,-2.40
2019-01-23T12:53:09.347Z,-2.60
2019-01-23T12:55:50.195Z,-2.70
2019-01-23T12:58:31.180Z,-2.70
2019-01-23T13:01:12.967Z,-2.70
2019-01-23T13:03:54.071Z,-2.80
2019-01-23T13:06:36.800Z,-2.90
2019-01-23T13:09:19.698Z,-2.90
2019-01-23T13:12:05.562Z,-3.00
2019-01-23T13:14:34.771Z,-3.00
2019-01-23T13:17:23.097Z,-3.00
2019-01-23T13:20:11.867Z,-3.20
2019-01-23T13:22:56.533Z,-3.00
2019-01-23T13:25:27.345Z,-3.10
2019-01-23T13:31:36.687Z,-3.10
2019-01-23T13:37:12.839Z,-3.20
2019-01-23T13:39:54.167Z,-3.20
2019-01-23T13:42:36.200Z,-3.10
2019-01-23T13:45:18.357Z,-3.10
2019-01-23T13:48:02.232Z,-3.10
2019-01-23T13:50:44.475Z,-3.20
2019-01-23T13:53:25.421Z,-3.20
2019-01-23T13:59:18.613Z,-3.10
2019-01-23T14:01:57.912Z,-3.20
2019-01-23T14:04:38.730Z,-3.20
2019-01-23T14:07:24.025Z,-3.10
2019-01-23T14:12:32.744Z,-3.00
2019-01-23T14:18:23.040Z,-2.90
2019-01-23T14:21:04.541Z,-3.00
2019-01-23T14:23:45.894Z,-3.00
2019-01-23T14:26:29.390Z,-3.00
2019-01-23T14:28:58.531Z,-3.20
2019-01-23T14:31:46.770Z,-3.10
2019-01-23T14:34:15.826Z,-3.10
2019-01-23T14:37:04.385Z,-3.00
2019-01-23T14:39:52.563Z,-2.90
2019-01-23T14:42:33.975Z,-3.00
2019-01-23T14:45:14.841Z,-3.00
2019-01-23T14:47:56.360Z,-3.10
2019-01-23T14:50:37.667Z,-2.90
2019-01-23T14:53:18.871Z,-2.90
2019-01-23T14:56:01.132Z,-2.80
2019-01-23T14:58:41.835Z,-2.80
2019-01-23T15:01:23.288Z,-2.70
2019-01-23T15:04:04.144Z,-2.90
2019-01-23T15:06:44.950Z,-2.80
2019-01-23T15:12:08.407Z,-3.00
2019-01-23T15:14:37.423Z,-3.00
2019-01-23T15:17:25.970Z,-2.90
2019-01-23T15:20:33.500Z,-2.80
2019-01-23T15:23:14.682Z,-2.90
2019-01-23T15:25:55.988Z,-3.00
2019-01-23T15:28:37.376Z,-2.90
2019-01-23T15:31:06.488Z,-2.90
2019-01-23T15:33:54.668Z,-2.80
2019-01-23T15:36:42.967Z,-3.00
2019-01-23T15:39:26.344Z,-2.90
2019-01-23T15:41:55.458Z,-3.10
2019-01-23T15:44:43.739Z,-3.10
2019-01-23T15:47:24.926Z,-3.10
2019-01-23T15:50:04.244Z,-3.20
2019-01-23T15:52:52.815Z,-3.20
2019-01-23T15:55:34.079Z,-3.20
2019-01-23T15:58:03.317Z,-2.90
2019-01-23T16:00:51.859Z,-2.80
2019-01-23T16:09:19.925Z,-1.90
2019-01-23T16:12:00.535Z,-3.00
2019-01-23T16:14:41.889Z,-3.00
2019-01-23T16:17:11.068Z,-3.10
2019-01-23T16:19:59.291Z,-3.20
2019-01-23T16:22:47.547Z,-3.20
2019-01-23T16:25:28.090Z,-3.20
2019-01-23T16:28:08.955Z,-3.30
2019-01-23T16:30:50.229Z,-3.30
2019-01-23T16:33:19.386Z,-3.40
2019-01-23T16:39:26.256Z,-3.40
2019-01-23T16:42:14.591Z,-3.40
2019-01-23T16:45:02.914Z,-3.30
2019-01-23T16:47:45.697Z,-3.30
2019-01-23T16:50:27.386Z,-3.30
2019-01-23T16:55:45.265Z,-3.40
2019-01-23T16:58:16.842Z,-3.20
2019-01-23T17:01:05.177Z,-3.20
2019-01-23T17:03:46.428Z,-3.10
2019-01-23T17:06:27.845Z,-3.30
2019-01-23T17:09:08.907Z,-3.30
2019-01-23T17:11:50.183Z,-3.40
2019-01-23T17:14:19.212Z,-3.30
2019-01-23T17:17:07.518Z,-3.40
2019-01-23T17:19:59.167Z,-3.40
2019-01-23T17:22:38.530Z,-3.40
2019-01-23T17:25:19.765Z,-3.40
2019-01-23T17:28:01.228Z,-3.40
2019-01-23T17:30:42.427Z,-3.40
2019-01-23T17:33:23.722Z,-3.40
2019-01-23T17:36:05.082Z,-3.40
2019-01-23T17:38:46.687Z,-3.40
2019-01-23T17:41:28.395Z,-3.40
2019-01-23T17:44:09.594Z,-3.50
2019-01-23T17:46:50.405Z,-3.50
2019-01-23T17:49:19.384Z,-3.60
2019-01-23T17:51:48.389Z,-3.40
2019-01-23T17:54:36.570Z,-3.50
2019-01-23T17:57:17.998Z,-3.60
2019-01-23T17:59:58.787Z,-3.50
2019-01-23T18:02:40.107Z,-3.40
2019-01-23T18:05:21.133Z,-3.70
2019-01-23T18:08:01.814Z,-3.60
2019-01-23T18:10:43.184Z,-3.60
2019-01-23T18:13:23.945Z,-3.70
2019-01-23T18:16:05.674Z,-3.60
2019-01-23T18:18:46.268Z,-3.60
2019-01-23T18:21:15.447Z,-3.60
2019-01-23T18:24:03.656Z,-3.60
2019-01-23T18:32:44.666Z,-3.70
2019-01-23T18:35:30.799Z,-3.70
2019-01-23T18:38:11.502Z,-3.60
2019-01-23T18:40:52.067Z,-3.70
2019-01-23T18:43:32.659Z,-3.70
2019-01-23T18:46:25.033Z,-3.80
2019-01-23T18:49:07.263Z,-3.80
2019-01-23T18:51:47.866Z,-3.80
2019-01-23T18:54:28.752Z,-3.80
2019-01-23T18:57:09.392Z,-3.90
2019-01-23T18:59:50.373Z,-4.00
2019-01-23T19:02:31.343Z,-3.90
2019-01-23T19:05:12.276Z,-3.90
2019-01-23T19:07:53.388Z,-3.80
2019-01-23T19:10:34.781Z,-4.00
2019-01-23T19:13:15.571Z,-3.80
2019-01-23T19:15:56.324Z,-3.90
2019-01-23T19:18:37.695Z,-3.90
2019-01-23T19:21:07.419Z,-3.80
2019-01-23T19:23:55.717Z,-3.80
2019-01-23T19:26:44.052Z,-3.70
2019-01-23T19:29:24.653Z,-3.70
2019-01-23T19:32:05.321Z,-3.70
2019-01-23T19:34:46.031Z,-3.80
2019-01-23T19:37:26.939Z,-3.90
2019-01-23T19:39:59.663Z,-3.90
2019-01-23T19:42:28.741Z,-4.00
2019-01-23T19:45:37.682Z,-4.00
2019-01-23T19:48:27.956Z,-4.00
2019-01-23T19:51:08.608Z,-3.90
2019-01-23T19:56:46.899Z,-4.00
2019-01-23T19:59:28.122Z,-4.10
2019-01-23T20:01:57.338Z,-3.90
2019-01-23T20:04:26.537Z,-4.00
2019-01-23T20:10:26.613Z,-4.00
2019-01-23T20:13:07.809Z,-3.90
2019-01-23T20:15:49.435Z,-3.80
2019-01-23T20:18:18.511Z,-3.80
2019-01-23T20:20:47.618Z,-3.80
2019-01-23T20:23:17.015Z,-3.90
2019-01-23T20:26:05.416Z,-3.80
2019-01-23T20:28:34.559Z,-3.80
2019-01-23T20:31:22.907Z,-3.80
2019-01-23T20:36:48.696Z,-3.70
2019-01-23T20:39:29.894Z,-3.60
2019-01-23T20:42:10.571Z,-3.70
2019-01-23T20:44:51.889Z,-3.80
2019-01-23T20:47:35.527Z,-3.90
2019-01-23T20:52:59.116Z,-3.70
2019-01-23T20:55:41.853Z,-3.60
2019-01-23T20:58:22.739Z,-3.60
2019-01-23T21:00:52.088Z,-3.50
2019-01-23T21:03:40.514Z,-3.60
2019-01-23T21:06:28.843Z,-3.50
2019-01-23T21:08:57.956Z,-3.50
2019-01-23T21:14:46.332Z,-3.60
2019-01-23T21:17:27.448Z,-3.50
2019-01-23T21:20:08.403Z,-3.60
2019-01-23T21:22:49.053Z,-3.50
2019-01-23T21:25:35.735Z,-3.70
2019-01-23T21:31:15.134Z,-3.50
2019-01-23T21:33:56.736Z,-3.70
2019-01-23T21:36:41.535Z,-3.60
2019-01-23T21:39:21.999Z,-3.70
2019-01-23T21:42:03.084Z,-3.60
2019-01-23T21:44:32.196Z,-3.70
2019-01-23T21:47:20.524Z,-3.70
2019-01-23T21:49:49.602Z,-3.50
2019-01-23T21:52:37.781Z,-3.80
2019-01-23T21:55:19.142Z,-3.70
2019-01-23T21:58:01.610Z,-3.70
2019-01-23T22:00:42.312Z,-3.60
2019-01-23T22:03:23.640Z,-3.70
2019-01-23T22:05:53.118Z,-3.50
2019-01-23T22:08:41.373Z,-3.70
2019-01-23T22:11:29.922Z,-3.60
2019-01-23T22:14:00.712Z,-3.60
2019-01-23T22:16:48.939Z,-3.60
2019-01-23T22:19:29.869Z,-3.70
2019-01-23T22:22:18.136Z,-3.50
2019-01-23T22:24:47.111Z,-3.60
2019-01-23T22:27:35.255Z,-3.60
2019-01-23T22:30:24.546Z,-3.50
2019-01-23T22:35:38.005Z,-3.60
2019-01-23T22:38:26.280Z,-3.50
2019-01-23T22:41:10.049Z,-3.60
2019-01-23T22:43:51.081Z,-3.60
2019-01-23T22:46:32.248Z,-3.60
2019-01-23T22:49:01.438Z,-3.50
2019-01-23T22:51:49.786Z,-3.50
2019-01-23T22:54:18.963Z,-3.60
2019-01-23T22:57:07.263Z,-3.60
2019-01-23T22:59:55.542Z,-3.60
2019-01-23T23:02:43.761Z,-3.60
2019-01-23T23:05:24.777Z,-3.70
2019-01-23T23:08:05.852Z,-3.70
2019-01-23T23:10:46.523Z,-3.70
2019-01-23T23:13:30.778Z,-3.60
2019-01-23T23:16:12.393Z,-3.70
2019-01-23T23:18:41.658Z,-3.80
2019-01-23T23:21:10.705Z,-3.70
2019-01-23T23:23:59.063Z,-3.60
2019-01-23T23:26:47.175Z,-3.60
2019-01-23T23:29:31.266Z,-3.80
2019-01-23T23:32:15.877Z,-3.80
2019-01-23T23:34:56.711Z,-3.80
2019-01-23T23:37:37.968Z,-3.70
2019-01-23T23:40:19.196Z,-3.60
2019-01-23T23:43:00.053Z,-3.70
2019-01-23T23:45:40.656Z,-3.70
2019-01-23T23:48:21.258Z,-3.80
2019-01-23T23:51:02.163Z,-3.80
2019-01-23T23:53:43.099Z,-3.80
2019-01-23T23:56:23.795Z,-3.80
2019-01-23T23:59:04.186Z,-3.80
